createdAt,value
2019-01-31T00:02:41.745Z,191.77
2019-01-31T00:05:50.138Z,182.15
2019-01-31T00:09:43.176Z,174.30
2019-01-31T00:13:03.183Z,195.38
2019-01-31T00:16:28.329Z,187.45
2019-01-31T00:19:33.231Z,187.40
2019-01-31T00:23:25.661Z,186.97
2019-01-31T00:27:06.629Z,183.27
2019-01-31T00:30:47.193Z,191.82
2019-01-31T00:34:18.915Z,192.03
2019-01-31T00:37:26.244Z,180.32
2019-01-31T00:41:09.568Z,184.03
2019-01-31T00:44:01.640Z,176.78
2019-01-31T00:47:39.406Z,180.63
2019-01-31T00:51:06.066Z,173.90
2019-01-31T00:54:18.708Z,172.10
2019-01-31T00:57:43.023Z,179.70
2019-01-31T01:01:15.366Z,177.07
2019-01-31T01:05:17.560Z,166.77
2019-01-31T01:08:32.575Z,178.53
2019-01-31T01:11:53.955Z,186.80
2019-01-31T01:15:31.829Z,177.95
2019-01-31T01:18:32.453Z,169.30
2019-01-31T01:22:13.802Z,183.97
2019-01-31T01:25:26.027Z,179.85
2019-01-31T01:28:57.672Z,175.55
2019-01-31T01:32:27.303Z,163.20
2019-01-31T01:36:02.112Z,185.85
2019-01-31T01:39:31.146Z,185.95
2019-01-31T01:42:49.572Z,182.12
2019-01-31T01:46:21.273Z,185.78
2019-01-31T01:49:37.507Z,188.87
2019-01-31T01:52:53.730Z,185.07
2019-01-31T01:55:43.277Z,188.37
2019-01-31T01:58:51.298Z,183.50
2019-01-31T02:02:25.625Z,187.88
2019-01-31T02:05:39.184Z,192.82
2019-01-31T02:09:01.044Z,218.50
2019-01-31T02:12:24.727Z,190.85
2019-01-31T02:15:55.766Z,181.50
2019-01-31T02:19:16.706Z,165.10
2019-01-31T02:23:07.927Z,185.07
2019-01-31T02:26:43.062Z,166.85
2019-01-31T02:29:57.169Z,177.97
2019-01-31T02:33:19.101Z,175.95
2019-01-31T02:36:49.514Z,172.90
2019-01-31T02:39:53.888Z,177.02
2019-01-31T02:43:09.771Z,168.28
2019-01-31T02:46:41.590Z,173.53
2019-01-31T02:50:06.610Z,172.68
2019-01-31T02:53:22.078Z,180.75
2019-01-31T02:56:49.091Z,176.85
2019-01-31T02:59:59.772Z,168.05
2019-01-31T03:03:38.831Z,174.68
2019-01-31T03:06:56.858Z,172.90
2019-01-31T03:11:08.890Z,162.60
2019-01-31T03:14:27.871Z,166.97
2019-01-31T03:18:01.825Z,158.78
2019-01-31T03:21:38.327Z,176.30
2019-01-31T03:25:12.898Z,178.18
2019-01-31T03:28:39.421Z,161.10
2019-01-31T03:31:54.288Z,186.43
2019-01-31T03:35:19.581Z,180.03
2019-01-31T03:38:42.752Z,177.00
2019-01-31T03:41:49.586Z,176.97
2019-01-31T03:44:43.407Z,174.55
2019-01-31T03:48:15.870Z,168.87
2019-01-31T03:51:53.887Z,180.37
2019-01-31T03:55:20.021Z,171.90
2019-01-31T03:58:47.558Z,193.70
2019-01-31T04:02:01.497Z,194.37
2019-01-31T04:05:30.411Z,184.50
2019-01-31T04:08:04.923Z,188.32
2019-01-31T04:10:39.935Z,188.85
2019-01-31T04:13:13.771Z,185.25
2019-01-31T04:15:47.941Z,185.28
2019-01-31T04:18:22.572Z,194.15
2019-01-31T04:20:56.864Z,175.72
2019-01-31T04:23:34.187Z,190.32
2019-01-31T04:26:11.221Z,176.00
2019-01-31T04:28:45.686Z,181.30
2019-01-31T04:31:28.260Z,183.87
2019-01-31T04:34:00.787Z,167.85
2019-01-31T04:36:35.943Z,174.68
2019-01-31T04:39:13.305Z,155.75
2019-01-31T04:41:48.087Z,157.62
2019-01-31T04:44:22.490Z,164.00
2019-01-31T04:46:57.666Z,169.80
2019-01-31T04:49:34.057Z,171.72
2019-01-31T04:52:09.428Z,163.68
2019-01-31T04:54:43.626Z,166.32
2019-01-31T04:57:17.503Z,172.28
2019-01-31T04:59:52.452Z,169.53
2019-01-31T05:02:26.300Z,171.75
2019-01-31T05:05:01.268Z,180.55
2019-01-31T05:07:36.066Z,180.07
2019-01-31T05:10:13.834Z,178.60
2019-01-31T05:12:48.519Z,183.65
2019-01-31T05:15:22.985Z,186.60
2019-01-31T05:17:57.478Z,191.85
2019-01-31T05:20:32.626Z,179.55
2019-01-31T05:23:07.634Z,182.30
2019-01-31T05:25:42.531Z,204.95
2019-01-31T05:28:18.533Z,190.53
2019-01-31T05:30:53.106Z,206.90
2019-01-31T05:33:27.527Z,218.63
2019-01-31T05:36:02.867Z,213.35
2019-01-31T05:38:38.049Z,217.75
2019-01-31T05:41:12.557Z,188.80
2019-01-31T05:43:46.853Z,221.57
2019-01-31T05:46:22.093Z,230.22
2019-01-31T05:48:57.095Z,213.18
2019-01-31T05:51:32.094Z,207.55
2019-01-31T05:54:06.300Z,207.12
2019-01-31T05:56:43.170Z,189.47
2019-01-31T05:59:18.056Z,186.37
2019-01-31T06:01:51.972Z,194.95
2019-01-31T06:04:27.628Z,202.35
2019-01-31T06:07:10.987Z,202.68
2019-01-31T06:09:39.477Z,201.65
2019-01-31T06:12:14.413Z,194.95
2019-01-31T06:14:49.587Z,187.77
2019-01-31T06:17:24.641Z,197.15
2019-01-31T06:19:58.935Z,187.12
2019-01-31T06:22:33.694Z,171.93
2019-01-31T06:25:08.508Z,181.72
2019-01-31T06:27:42.627Z,194.20
2019-01-31T06:30:18.418Z,203.92
2019-01-31T06:32:51.358Z,214.50
2019-01-31T06:35:24.910Z,227.18
2019-01-31T06:37:58.902Z,210.85
2019-01-31T06:40:32.562Z,221.75
2019-01-31T06:43:06.414Z,199.87
2019-01-31T06:45:40.408Z,193.85
2019-01-31T06:48:19.112Z,202.07
2019-01-31T06:50:53.442Z,201.00
2019-01-31T06:53:26.958Z,225.30
2019-01-31T06:56:01.284Z,213.25
2019-01-31T06:58:41.030Z,184.15
2019-01-31T07:01:14.595Z,210.05
2019-01-31T07:03:48.398Z,209.70
2019-01-31T07:06:23.517Z,204.63
2019-01-31T07:08:57.513Z,207.00
2019-01-31T07:11:34.758Z,208.93
2019-01-31T07:14:06.642Z,219.47
2019-01-31T07:16:40.030Z,205.67
2019-01-31T07:19:16.064Z,197.53
2019-01-31T07:21:50.930Z,206.35
2019-01-31T07:24:25.141Z,188.20
2019-01-31T07:26:58.876Z,204.07
2019-01-31T07:29:32.257Z,202.68
2019-01-31T07:32:06.338Z,188.05
2019-01-31T07:34:40.131Z,190.57
2019-01-31T07:37:14.266Z,178.02
2019-01-31T07:39:48.504Z,179.68
2019-01-31T07:42:22.394Z,172.07
2019-01-31T07:44:57.259Z,170.25
2019-01-31T07:47:31.764Z,159.97
2019-01-31T07:50:06.266Z,158.22
2019-01-31T07:52:41.828Z,176.53
2019-01-31T07:55:15.593Z,178.85
2019-01-31T07:57:48.995Z,193.90
2019-01-31T08:00:25.991Z,184.43
2019-01-31T08:02:59.754Z,189.47
2019-01-31T08:05:34.923Z,201.60
2019-01-31T08:08:10.119Z,212.68
2019-01-31T08:10:45.242Z,203.37
2019-01-31T08:13:18.797Z,195.62
2019-01-31T08:15:53.245Z,186.77
2019-01-31T08:18:28.177Z,191.00
2019-01-31T08:21:02.006Z,187.05
2019-01-31T08:23:36.610Z,171.95
2019-01-31T08:26:11.008Z,152.65
2019-01-31T08:28:45.331Z,162.90
2019-01-31T08:31:18.820Z,149.80
2019-01-31T08:33:53.711Z,155.87
2019-01-31T08:36:27.652Z,152.45
2019-01-31T08:39:01.423Z,144.13
2019-01-31T08:41:35.294Z,154.47
2019-01-31T08:44:10.706Z,152.57
2019-01-31T08:46:45.724Z,135.57
2019-01-31T08:49:19.139Z,149.25
2019-01-31T08:51:53.363Z,140.88
2019-01-31T08:54:27.306Z,145.92
2019-01-31T08:57:02.290Z,152.07
2019-01-31T08:59:36.143Z,135.43
2019-01-31T09:02:12.446Z,125.07
2019-01-31T09:04:45.655Z,137.72
2019-01-31T09:07:19.482Z,128.45
2019-01-31T09:09:53.640Z,144.65
2019-01-31T09:12:27.425Z,143.65
2019-01-31T09:15:01.945Z,153.35
2019-01-31T09:17:36.907Z,137.45
2019-01-31T09:20:13.309Z,147.62
2019-01-31T09:23:21.763Z,127.02
2019-01-31T09:26:47.928Z,123.13
2019-01-31T09:30:03.561Z,126.87
2019-01-31T09:33:17.977Z,112.90
2019-01-31T09:36:25.083Z,112.57
2019-01-31T09:40:18.928Z,109.55
2019-01-31T09:43:44.245Z,89.90
2019-01-31T09:47:11.830Z,98.00
2019-01-31T09:50:45.134Z,109.42
2019-01-31T09:54:21.332Z,92.05
2019-01-31T09:58:07.472Z,88.12
2019-01-31T10:01:53.663Z,103.90
2019-01-31T10:05:02.334Z,91.57
2019-01-31T10:08:14.877Z,104.85
2019-01-31T10:11:39.901Z,92.95
2019-01-31T10:15:08.383Z,95.10
2019-01-31T10:18:28.268Z,99.07
2019-01-31T10:22:15.757Z,80.32
2019-01-31T10:25:23.108Z,78.35
2019-01-31T10:28:32.413Z,79.25
2019-01-31T10:31:49.792Z,81.10
2019-01-31T10:35:13.697Z,72.37
2019-01-31T10:38:25.125Z,77.37
2019-01-31T10:41:40.208Z,65.67
2019-01-31T10:44:42.068Z,72.53
2019-01-31T10:48:15.499Z,77.37
2019-01-31T10:52:11.236Z,100.15
2019-01-31T10:55:41.683Z,93.25
2019-01-31T10:59:17.828Z,79.58
2019-01-31T11:02:49.655Z,71.15
2019-01-31T11:06:45.629Z,68.15
2019-01-31T11:10:19.257Z,63.95
2019-01-31T11:14:02.605Z,77.00
2019-01-31T11:17:56.015Z,73.50
2019-01-31T11:21:47.269Z,93.78
2019-01-31T11:25:20.572Z,93.58
2019-01-31T11:28:49.010Z,84.45
2019-01-31T11:31:39.754Z,73.05
2019-01-31T11:35:12.223Z,70.95
2019-01-31T11:38:55.778Z,78.52
2019-01-31T11:42:04.921Z,74.90
2019-01-31T11:45:40.887Z,87.70
2019-01-31T11:48:38.272Z,78.67
2019-01-31T11:52:28.238Z,80.70
2019-01-31T11:55:29.028Z,87.62
2019-01-31T11:58:51.838Z,87.42
2019-01-31T12:01:25.773Z,94.90
2019-01-31T12:04:07.841Z,93.87
2019-01-31T12:06:42.321Z,95.70
2019-01-31T12:09:23.156Z,92.02
2019-01-31T12:11:57.806Z,77.30
2019-01-31T12:14:32.672Z,83.35
2019-01-31T12:17:07.864Z,92.08
2019-01-31T12:19:41.897Z,96.60
2019-01-31T12:22:16.357Z,87.00
2019-01-31T12:24:51.201Z,87.20
2019-01-31T12:27:26.463Z,90.72
2019-01-31T12:30:01.816Z,88.50
2019-01-31T12:32:37.166Z,70.55
2019-01-31T12:35:10.823Z,66.02
2019-01-31T12:37:45.141Z,61.75
2019-01-31T12:40:19.741Z,52.83
2019-01-31T12:42:52.787Z,53.80
2019-01-31T12:45:26.370Z,51.33
2019-01-31T12:48:00.118Z,51.77
2019-01-31T12:50:34.029Z,58.28
2019-01-31T12:53:08.354Z,64.95
2019-01-31T12:55:43.156Z,68.07
2019-01-31T12:58:16.197Z,61.02
2019-01-31T13:00:50.543Z,65.57
2019-01-31T13:03:24.975Z,62.25
2019-01-31T13:05:59.137Z,66.55
2019-01-31T13:08:31.590Z,69.67
2019-01-31T13:11:06.674Z,63.02
2019-01-31T13:13:46.134Z,60.03
2019-01-31T13:16:13.981Z,56.85
2019-01-31T13:18:47.900Z,54.38
2019-01-31T13:21:20.913Z,55.45
2019-01-31T13:23:54.093Z,53.78
2019-01-31T13:26:27.357Z,50.83
2019-01-31T13:29:02.071Z,50.63
2019-01-31T13:31:38.917Z,54.20
2019-01-31T13:34:18.700Z,59.75
2019-01-31T13:36:52.554Z,48.68
2019-01-31T13:39:25.930Z,51.37
2019-01-31T13:41:59.523Z,57.78
2019-01-31T13:44:33.320Z,55.12
2019-01-31T13:47:07.721Z,49.90
2019-01-31T13:49:41.942Z,43.55
2019-01-31T13:52:16.167Z,38.00
2019-01-31T13:54:50.900Z,40.73
2019-01-31T13:57:25.574Z,45.43
2019-01-31T14:00:00.876Z,44.35
2019-01-31T14:02:34.707Z,39.33
2019-01-31T14:05:09.044Z,42.95
2019-01-31T14:07:43.001Z,48.80
2019-01-31T14:10:22.333Z,42.38
2019-01-31T14:12:55.833Z,55.63
2019-01-31T14:15:33.911Z,61.53
2019-01-31T14:18:07.859Z,65.72
2019-01-31T14:20:41.687Z,70.42
2019-01-31T14:23:15.058Z,85.75
2019-01-31T14:25:48.768Z,95.77
2019-01-31T14:28:22.565Z,81.28
2019-01-31T14:30:56.656Z,100.70
2019-01-31T14:33:30.902Z,106.78
2019-01-31T14:36:04.677Z,88.40
2019-01-31T14:38:37.474Z,86.00
2019-01-31T14:41:11.716Z,99.72
2019-01-31T14:43:46.164Z,91.82
2019-01-31T14:46:20.977Z,87.50
2019-01-31T14:48:54.666Z,86.22
2019-01-31T14:51:28.372Z,103.62
2019-01-31T14:54:02.217Z,100.05
2019-01-31T14:56:35.191Z,79.70
2019-01-31T14:59:09.069Z,78.00
2019-01-31T15:01:42.891Z,97.82
2019-01-31T15:04:17.084Z,112.50
2019-01-31T15:06:51.306Z,110.63
2019-01-31T15:09:24.720Z,127.30
2019-01-31T15:11:58.487Z,196.43
2019-01-31T15:14:32.625Z,181.82
2019-01-31T15:17:07.160Z,117.10
2019-01-31T15:19:40.946Z,125.45
2019-01-31T15:22:14.653Z,111.00
2019-01-31T15:24:48.460Z,121.17
2019-01-31T15:27:23.044Z,124.38
2019-01-31T15:29:56.564Z,134.52
2019-01-31T15:32:32.885Z,129.70
2019-01-31T15:35:06.346Z,145.00
2019-01-31T15:37:40.152Z,154.20
2019-01-31T15:40:18.854Z,247.00
2019-01-31T15:42:52.165Z,328.52
2019-01-31T15:45:26.606Z,362.08
2019-01-31T15:48:00.401Z,357.98
2019-01-31T15:50:34.901Z,340.80
2019-01-31T15:53:09.139Z,356.43
2019-01-31T15:55:43.192Z,336.20
2019-01-31T15:58:17.810Z,297.93
2019-01-31T16:00:54.374Z,297.60
2019-01-31T16:03:28.086Z,272.93
2019-01-31T16:06:01.821Z,250.00
2019-01-31T16:08:35.562Z,225.03
2019-01-31T16:11:09.926Z,177.78
2019-01-31T16:13:42.373Z,163.22
2019-01-31T16:16:16.120Z,154.75
2019-01-31T16:18:49.555Z,155.05
2019-01-31T16:21:23.480Z,157.82
2019-01-31T16:23:56.842Z,153.72
2019-01-31T16:26:30.776Z,136.28
2019-01-31T16:29:04.182Z,150.80
2019-01-31T16:31:37.557Z,157.40
2019-01-31T16:34:10.533Z,151.30
2019-01-31T16:36:44.869Z,167.20
2019-01-31T16:39:17.234Z,165.03
2019-01-31T16:41:50.749Z,192.77
2019-01-31T16:44:24.201Z,201.55
2019-01-31T16:46:57.265Z,224.30
2019-01-31T16:49:30.403Z,208.47
2019-01-31T16:52:02.788Z,237.30
2019-01-31T16:54:37.067Z,228.22
2019-01-31T16:57:10.513Z,256.02
2019-01-31T16:59:44.303Z,244.87
2019-01-31T17:02:17.744Z,266.42
2019-01-31T17:04:50.277Z,223.72
2019-01-31T17:07:24.217Z,206.15
2019-01-31T17:09:57.592Z,194.90
2019-01-31T17:12:31.172Z,189.72
2019-01-31T17:15:04.056Z,178.72
2019-01-31T17:17:36.614Z,187.60
2019-01-31T17:20:14.970Z,176.02
2019-01-31T17:22:48.833Z,183.87
2019-01-31T17:25:22.263Z,179.30
2019-01-31T17:27:56.598Z,174.12
2019-01-31T17:30:29.942Z,178.55
2019-01-31T17:33:03.929Z,174.97
2019-01-31T17:35:37.120Z,175.60
2019-01-31T17:38:11.301Z,170.07
2019-01-31T17:40:45.506Z,169.37
2019-01-31T17:43:19.024Z,171.65
2019-01-31T17:45:53.320Z,166.62
2019-01-31T17:48:27.027Z,166.73
2019-01-31T17:51:00.307Z,165.73
2019-01-31T17:53:34.228Z,171.40
2019-01-31T17:56:07.957Z,184.85
2019-01-31T17:58:41.970Z,166.90
2019-01-31T18:01:15.773Z,167.95
2019-01-31T18:03:49.579Z,164.60
2019-01-31T18:06:24.493Z,148.07
2019-01-31T18:08:59.633Z,139.62
2019-01-31T18:11:32.149Z,142.05
2019-01-31T18:14:05.949Z,135.65
2019-01-31T18:16:38.872Z,130.03
2019-01-31T18:19:11.395Z,137.75
2019-01-31T18:21:43.765Z,138.72
2019-01-31T18:24:16.308Z,166.92
2019-01-31T18:26:48.350Z,163.40
2019-01-31T18:29:20.364Z,168.65
2019-01-31T18:31:53.395Z,191.62
2019-01-31T18:34:25.825Z,201.60
2019-01-31T18:36:58.386Z,192.85
2019-01-31T18:39:31.388Z,191.92
2019-01-31T18:42:05.289Z,161.37
2019-01-31T18:44:39.178Z,171.90
2019-01-31T18:47:13.181Z,171.47
2019-01-31T18:49:46.994Z,189.30
2019-01-31T18:52:20.245Z,213.35
2019-01-31T18:54:54.348Z,223.70
2019-01-31T18:57:26.839Z,201.58
2019-01-31T18:59:59.470Z,158.63
2019-01-31T19:02:33.455Z,168.02
2019-01-31T19:05:06.108Z,162.80
2019-01-31T19:07:38.719Z,175.78
2019-01-31T19:10:11.978Z,157.97
2019-01-31T19:12:46.098Z,152.12
2019-01-31T19:15:19.967Z,125.87
2019-01-31T19:17:52.881Z,132.52
2019-01-31T19:20:28.843Z,136.20
2019-01-31T19:23:04.282Z,133.85
2019-01-31T19:25:37.858Z,132.10
2019-01-31T19:28:13.147Z,135.45
2019-01-31T19:30:45.152Z,146.43
2019-01-31T19:33:19.195Z,142.32
2019-01-31T19:35:52.960Z,140.77
2019-01-31T19:38:25.996Z,140.70
2019-01-31T19:40:59.827Z,132.12
2019-01-31T19:43:32.311Z,124.38
2019-01-31T19:46:15.844Z,131.78
2019-01-31T19:48:40.656Z,156.15
2019-01-31T19:51:14.351Z,172.40
2019-01-31T19:53:48.465Z,178.90
2019-01-31T19:56:22.622Z,196.02
2019-01-31T19:58:56.072Z,197.65
2019-01-31T20:01:30.302Z,189.00
2019-01-31T20:04:03.200Z,182.60
2019-01-31T20:06:36.737Z,197.78
2019-01-31T20:09:23.845Z,169.60
2019-01-31T20:11:56.705Z,158.25
2019-01-31T20:14:30.829Z,146.95
2019-01-31T20:17:04.313Z,133.30
2019-01-31T20:19:37.189Z,141.73
2019-01-31T20:22:10.411Z,152.57
2019-01-31T20:24:42.787Z,149.47
2019-01-31T20:27:16.919Z,126.18
2019-01-31T20:29:50.361Z,124.18
2019-01-31T20:32:22.772Z,122.75
2019-01-31T20:34:55.756Z,130.82
2019-01-31T20:37:27.701Z,123.22
2019-01-31T20:40:00.819Z,136.28
2019-01-31T20:42:33.513Z,137.52
2019-01-31T20:45:08.053Z,142.68
2019-01-31T20:47:40.569Z,126.72
2019-01-31T20:50:20.256Z,123.38
2019-01-31T20:52:52.809Z,124.60
2019-01-31T20:55:25.274Z,138.20
2019-01-31T20:57:58.350Z,131.78
2019-01-31T21:00:36.987Z,125.02
2019-01-31T21:03:10.836Z,126.38
2019-01-31T21:05:44.729Z,137.37
2019-01-31T21:08:17.878Z,130.18
2019-01-31T21:10:50.314Z,125.65
2019-01-31T21:13:23.133Z,133.03
2019-01-31T21:15:57.656Z,139.68
2019-01-31T21:18:30.693Z,123.75
2019-01-31T21:21:05.409Z,128.75
2019-01-31T21:23:38.710Z,133.55
2019-01-31T21:26:10.803Z,125.20
2019-01-31T21:28:43.665Z,128.97
2019-01-31T21:31:17.652Z,126.33
2019-01-31T21:33:51.726Z,128.05
2019-01-31T21:36:24.768Z,119.55
2019-01-31T21:38:57.896Z,119.17
2019-01-31T21:41:31.788Z,117.82
2019-01-31T21:44:06.358Z,119.47
2019-01-31T21:46:41.000Z,106.95
2019-01-31T21:49:15.875Z,110.57
2019-01-31T21:51:51.202Z,121.55
2019-01-31T21:54:25.601Z,105.75
2019-01-31T21:56:59.587Z,119.87
2019-01-31T21:59:33.438Z,120.82
2019-01-31T22:02:08.439Z,112.83
2019-01-31T22:04:41.432Z,108.30
2019-01-31T22:07:15.268Z,105.03
2019-01-31T22:09:48.854Z,105.97
2019-01-31T22:12:24.648Z,114.37
2019-01-31T22:14:59.150Z,112.50
2019-01-31T22:17:33.548Z,122.07
2019-01-31T22:20:07.546Z,149.90
2019-01-31T22:22:42.230Z,180.87
2019-01-31T22:25:17.974Z,189.22
2019-01-31T22:27:51.832Z,173.93
2019-01-31T22:30:31.643Z,175.42
2019-01-31T22:33:05.967Z,143.37
2019-01-31T22:35:40.608Z,135.00
2019-01-31T22:38:16.022Z,123.65
2019-01-31T22:40:50.538Z,124.15
2019-01-31T22:43:26.346Z,117.55
2019-01-31T22:46:01.739Z,139.92
2019-01-31T22:48:36.529Z,122.62
2019-01-31T22:51:10.548Z,127.00
2019-01-31T22:53:44.287Z,151.12
2019-01-31T22:56:19.119Z,128.20
2019-01-31T22:58:54.730Z,133.57
2019-01-31T23:01:51.791Z,147.72
2019-01-31T23:04:51.824Z,147.45
2019-01-31T23:07:25.420Z,148.15
2019-01-31T23:09:59.536Z,131.10
2019-01-31T23:12:33.281Z,119.33
2019-01-31T23:15:07.217Z,138.90
2019-01-31T23:17:43.504Z,159.05
2019-01-31T23:20:19.654Z,151.70
2019-01-31T23:22:54.452Z,140.55
2019-01-31T23:25:39.390Z,139.90
2019-01-31T23:28:08.299Z,136.12
2019-01-31T23:30:42.591Z,146.62
2019-01-31T23:33:17.590Z,136.18
2019-01-31T23:35:51.964Z,137.95
2019-01-31T23:38:26.717Z,136.37
2019-01-31T23:41:02.025Z,136.12
2019-01-31T23:43:37.153Z,121.05
2019-01-31T23:46:11.624Z,132.97
2019-01-31T23:48:45.839Z,140.35
2019-01-31T23:51:19.701Z,139.77
2019-01-31T23:53:53.979Z,135.28
2019-01-31T23:56:27.366Z,139.07
2019-01-31T23:59:02.442Z,134.18
